EastWest Aircraft Sales has several offices across the USA. See map for information on the nearest airstrips.

Naples Municipal Airport

Available data for KAPF from the past 2 hours
NAPLES MUNICIPAL, FL
Metar
KAPF 211453Z 09010KT 10SM CLR 26/21 A3011 RMK AO2 SLP196 T02610211 50001

14:53 UTC

Wind: 90° 10kt

Visibility: 10 SM

Sky:

Temp: 26 deg C / 78.8 deg F

Dewpoint: 21 deg C / 69.8 deg F

Pressure: 30.11 inHg

TAF
KAPF 211508Z 2115/2212 09010KT P6SM BKN250 FM211700 19010KT P6SM SCT025 SCT250 FM212000 24015KT P6SM SCT035 SCT250 FM220000 26006KT P6SM SCT045 FM220200 VRB03KT P6SM SCT025 BKN045

Hillsboro Airport

Available data for KHIO from the past 2 hours
HILLSBORO/PORTLD, OR
Metar
KHIO 211453Z 33004KT 10SM CLR 08/05 A3039 RMK AO2 SLP291 T00830050 53024

14:53 UTC

Wind: 330° 4kt

Visibility: 10 SM

Sky:

Temp: 8 deg C / 46.4 deg F

Dewpoint: 5 deg C / 41 deg F

Pressure: 30.39 inHg

TAF
KHIO 211140Z 2112/2212 19007KT P6SM VCSH BKN030 OVC045 FM211400 28005KT P6SM OVC040 FM211900 33004KT P6SM SCT040 FM220000 31008KT P6SM SCT150 FM220600 31004KT P6SM SCT150